sensor_id;sensor_type;location;lat;lon;timestamp;P1;durP1;ratioP1;P2;durP2;ratioP2
39698;SDS011;25372;50.582;12.250;2023-02-19T00:02:39;4.03;;;1.45;;
39698;SDS011;25372;50.582;12.250;2023-02-19T00:13:06;3.40;;;1.67;;
39698;SDS011;25372;50.582;12.250;2023-02-19T00:23:27;1.50;;;1.15;;
39698;SDS011;25372;50.582;12.250;2023-02-19T00:33:50;2.40;;;1.30;;
39698;SDS011;25372;50.582;12.250;2023-02-19T00:44:12;1.83;;;1.40;;
39698;SDS011;25372;50.582;12.250;2023-02-19T00:54:35;2.38;;;1.85;;
39698;SDS011;25372;50.582;12.250;2023-02-19T01:04:57;2.38;;;1.58;;
39698;SDS011;25372;50.582;12.250;2023-02-19T01:15:19;3.78;;;1.83;;
39698;SDS011;25372;50.582;12.250;2023-02-19T01:25:40;3.25;;;1.55;;
39698;SDS011;25372;50.582;12.250;2023-02-19T01:36:03;3.55;;;1.88;;
39698;SDS011;25372;50.582;12.250;2023-02-19T01:46:25;4.13;;;1.50;;
39698;SDS011;25372;50.582;12.250;2023-02-19T01:56:48;1.60;;;1.20;;
39698;SDS011;25372;50.582;12.250;2023-02-19T02:07:09;2.15;;;1.40;;
39698;SDS011;25372;50.582;12.250;2023-02-19T02:17:49;1.10;;;1.00;;
39698;SDS011;25372;50.582;12.250;2023-02-19T02:28:16;2.92;;;1.17;;
39698;SDS011;25372;50.582;12.250;2023-02-19T02:38:49;1.83;;;1.08;;
39698;SDS011;25372;50.582;12.250;2023-02-19T02:49:16;0.80;;;0.80;;
39698;SDS011;25372;50.582;12.250;2023-02-19T02:59:44;1.00;;;0.90;;
39698;SDS011;25372;50.582;12.250;2023-02-19T03:10:10;2.00;;;0.90;;
39698;SDS011;25372;50.582;12.250;2023-02-19T03:20:38;1.05;;;0.70;;
39698;SDS011;25372;50.582;12.250;2023-02-19T03:31:01;1.92;;;0.90;;
39698;SDS011;25372;50.582;12.250;2023-02-19T03:41:29;1.48;;;1.02;;
39698;SDS011;25372;50.582;12.250;2023-02-19T03:51:56;0.75;;;0.75;;
39698;SDS011;25372;50.582;12.250;2023-02-19T04:02:27;0.60;;;0.60;;
39698;SDS011;25372;50.582;12.250;2023-02-19T04:12:54;0.40;;;0.40;;
39698;SDS011;25372;50.582;12.250;2023-02-19T04:23:21;0.43;;;0.43;;
39698;SDS011;25372;50.582;12.250;2023-02-19T04:33:44;0.60;;;0.60;;
39698;SDS011;25372;50.582;12.250;2023-02-19T04:44:06;0.50;;;0.50;;
39698;SDS011;25372;50.582;12.250;2023-02-19T04:54:27;0.40;;;0.40;;
39698;SDS011;25372;50.582;12.250;2023-02-19T05:04:49;0.70;;;0.70;;
39698;SDS011;25372;50.582;12.250;2023-02-19T05:15:10;2.47;;;0.90;;
39698;SDS011;25372;50.582;12.250;2023-02-19T05:25:31;0.80;;;0.80;;
39698;SDS011;25372;50.582;12.250;2023-02-19T05:35:53;0.57;;;0.57;;
39698;SDS011;25372;50.582;12.250;2023-02-19T05:46:16;0.68;;;0.68;;
39698;SDS011;25372;50.582;12.250;2023-02-19T05:56:39;0.80;;;0.80;;
39698;SDS011;25372;50.582;12.250;2023-02-19T06:07:03;0.50;;;0.50;;
39698;SDS011;25372;50.582;12.250;2023-02-19T06:17:24;0.75;;;0.70;;
39698;SDS011;25372;50.582;12.250;2023-02-19T06:27:45;0.47;;;0.47;;
39698;SDS011;25372;50.582;12.250;2023-02-19T06:38:06;0.60;;;0.60;;
39698;SDS011;25372;50.582;12.250;2023-02-19T06:48:29;0.40;;;0.40;;
39698;SDS011;25372;50.582;12.250;2023-02-19T06:58:51;0.50;;;0.50;;
39698;SDS011;25372;50.582;12.250;2023-02-19T07:09:13;0.80;;;0.80;;
39698;SDS011;25372;50.582;12.250;2023-02-19T07:19:34;0.60;;;0.60;;
39698;SDS011;25372;50.582;12.250;2023-02-19T07:29:56;1.23;;;0.88;;
39698;SDS011;25372;50.582;12.250;2023-02-19T07:40:17;1.15;;;0.90;;
39698;SDS011;25372;50.582;12.250;2023-02-19T07:50:40;0.98;;;0.82;;
39698;SDS011;25372;50.582;12.250;2023-02-19T08:01:07;1.00;;;0.70;;
39698;SDS011;25372;50.582;12.250;2023-02-19T08:11:31;1.77;;;0.77;;
39698;SDS011;25372;50.582;12.250;2023-02-19T08:22:09;1.48;;;1.35;;
39698;SDS011;25372;50.582;12.250;2023-02-19T08:32:31;2.22;;;1.23;;
39698;SDS011;25372;50.582;12.250;2023-02-19T08:42:52;3.33;;;1.65;;
39698;SDS011;25372;50.582;12.250;2023-02-19T08:53:14;1.73;;;1.17;;
39698;SDS011;25372;50.582;12.250;2023-02-19T09:03:34;1.88;;;1.58;;
39698;SDS011;25372;50.582;12.250;2023-02-19T09:13:57;0.90;;;0.90;;
39698;SDS011;25372;50.582;12.250;2023-02-19T09:24:18;0.98;;;0.90;;
39698;SDS011;25372;50.582;12.250;2023-02-19T09:34:40;3.30;;;1.40;;
39698;SDS011;25372;50.582;12.250;2023-02-19T09:45:01;4.95;;;0.70;;
39698;SDS011;25372;50.582;12.250;2023-02-19T09:55:28;7.32;;;2.92;;
39698;SDS011;25372;50.582;12.250;2023-02-19T10:05:52;0.73;;;0.73;;
39698;SDS011;25372;50.582;12.250;2023-02-19T10:16:16;1.13;;;1.02;;
39698;SDS011;25372;50.582;12.250;2023-02-19T10:26:39;0.85;;;0.73;;
39698;SDS011;25372;50.582;12.250;2023-02-19T10:37:01;1.42;;;1.17;;
39698;SDS011;25372;50.582;12.250;2023-02-19T10:47:22;1.27;;;1.08;;
39698;SDS011;25372;50.582;12.250;2023-02-19T10:57:46;3.08;;;1.27;;
39698;SDS011;25372;50.582;12.250;2023-02-19T11:08:14;0.87;;;0.80;;
39698;SDS011;25372;50.582;12.250;2023-02-19T11:18:42;3.63;;;1.00;;
39698;SDS011;25372;50.582;12.250;2023-02-19T11:29:11;0.70;;;0.70;;
39698;SDS011;25372;50.582;12.250;2023-02-19T11:39:40;0.75;;;0.65;;
39698;SDS011;25372;50.582;12.250;2023-02-19T11:50:03;1.33;;;0.80;;
39698;SDS011;25372;50.582;12.250;2023-02-19T12:00:35;0.90;;;0.90;;
39698;SDS011;25372;50.582;12.250;2023-02-19T12:11:09;1.10;;;1.00;;
39698;SDS011;25372;50.582;12.250;2023-02-19T12:21:43;0.82;;;0.80;;
39698;SDS011;25372;50.582;12.250;2023-02-19T12:32:18;1.88;;;0.90;;
39698;SDS011;25372;50.582;12.250;2023-02-19T12:42:52;0.65;;;0.65;;
39698;SDS011;25372;50.582;12.250;2023-02-19T12:53:23;1.65;;;0.70;;
39698;SDS011;25372;50.582;12.250;2023-02-19T13:03:56;0.60;;;0.60;;
39698;SDS011;25372;50.582;12.250;2023-02-19T13:25:02;0.80;;;0.70;;
39698;SDS011;25372;50.582;12.250;2023-02-19T13:35:27;0.55;;;0.55;;
39698;SDS011;25372;50.582;12.250;2023-02-19T13:46:14;0.73;;;0.50;;
39698;SDS011;25372;50.582;12.250;2023-02-19T13:56:37;1.17;;;0.60;;
39698;SDS011;25372;50.582;12.250;2023-02-19T14:18:19;1.02;;;0.75;;
39698;SDS011;25372;50.582;12.250;2023-02-19T14:29:05;1.77;;;1.00;;
39698;SDS011;25372;50.582;12.250;2023-02-19T14:39:30;4.73;;;1.20;;
39698;SDS011;25372;50.582;12.250;2023-02-19T14:49:54;1.50;;;0.80;;
39698;SDS011;25372;50.582;12.250;2023-02-19T15:00:22;3.70;;;0.70;;
39698;SDS011;25372;50.582;12.250;2023-02-19T15:10:45;1.52;;;0.90;;
39698;SDS011;25372;50.582;12.250;2023-02-19T15:21:15;2.70;;;0.90;;
39698;SDS011;25372;50.582;12.250;2023-02-19T15:31:45;3.22;;;0.77;;
39698;SDS011;25372;50.582;12.250;2023-02-19T15:42:09;2.28;;;1.60;;
39698;SDS011;25372;50.582;12.250;2023-02-19T15:52:38;3.15;;;1.83;;
39698;SDS011;25372;50.582;12.250;2023-02-19T16:03:08;5.10;;;0.88;;
39698;SDS011;25372;50.582;12.250;2023-02-19T16:13:35;2.30;;;2.10;;
39698;SDS011;25372;50.582;12.250;2023-02-19T16:23:58;2.22;;;1.55;;
39698;SDS011;25372;50.582;12.250;2023-02-19T16:34:29;1.67;;;1.35;;
39698;SDS011;25372;50.582;12.250;2023-02-19T16:45:00;5.00;;;1.13;;
39698;SDS011;25372;50.582;12.250;2023-02-19T16:55:21;1.83;;;1.30;;
39698;SDS011;25372;50.582;12.250;2023-02-19T17:05:44;1.55;;;1.13;;
39698;SDS011;25372;50.582;12.250;2023-02-19T17:16:05;2.75;;;1.50;;
39698;SDS011;25372;50.582;12.250;2023-02-19T17:26:28;7.22;;;2.67;;
39698;SDS011;25372;50.582;12.250;2023-02-19T17:36:50;1.65;;;1.55;;
39698;SDS011;25372;50.582;12.250;2023-02-19T17:47:12;1.98;;;1.58;;
39698;SDS011;25372;50.582;12.250;2023-02-19T17:57:33;1.15;;;1.05;;
39698;SDS011;25372;50.582;12.250;2023-02-19T18:07:54;4.00;;;2.85;;
39698;SDS011;25372;50.582;12.250;2023-02-19T18:18:15;4.25;;;2.25;;
39698;SDS011;25372;50.582;12.250;2023-02-19T18:28:37;3.22;;;1.92;;
39698;SDS011;25372;50.582;12.250;2023-02-19T18:38:58;5.72;;;2.20;;
39698;SDS011;25372;50.582;12.250;2023-02-19T18:49:20;4.72;;;2.05;;
39698;SDS011;25372;50.582;12.250;2023-02-19T18:59:43;4.25;;;1.88;;
39698;SDS011;25372;50.582;12.250;2023-02-19T19:10:06;5.35;;;2.50;;
39698;SDS011;25372;50.582;12.250;2023-02-19T19:20:28;8.13;;;2.70;;
39698;SDS011;25372;50.582;12.250;2023-02-19T19:30:50;1.75;;;1.42;;
39698;SDS011;25372;50.582;12.250;2023-02-19T19:41:12;9.18;;;1.77;;
39698;SDS011;25372;50.582;12.250;2023-02-19T19:51:34;4.60;;;1.77;;
39698;SDS011;25372;50.582;12.250;2023-02-19T20:01:55;7.78;;;2.33;;
39698;SDS011;25372;50.582;12.250;2023-02-19T20:12:18;3.03;;;2.03;;
39698;SDS011;25372;50.582;12.250;2023-02-19T20:22:38;3.30;;;1.70;;
39698;SDS011;25372;50.582;12.250;2023-02-19T20:33:00;3.15;;;1.80;;
39698;SDS011;25372;50.582;12.250;2023-02-19T20:43:21;6.93;;;2.15;;
39698;SDS011;25372;50.582;12.250;2023-02-19T20:53:43;5.20;;;2.63;;
39698;SDS011;25372;50.582;12.250;2023-02-19T21:04:04;3.63;;;1.90;;
39698;SDS011;25372;50.582;12.250;2023-02-19T21:14:26;3.08;;;1.80;;
39698;SDS011;25372;50.582;12.250;2023-02-19T21:24:48;5.75;;;2.30;;
39698;SDS011;25372;50.582;12.250;2023-02-19T21:35:11;3.75;;;1.90;;
39698;SDS011;25372;50.582;12.250;2023-02-19T21:45:32;5.38;;;2.20;;
39698;SDS011;25372;50.582;12.250;2023-02-19T21:55:54;5.03;;;2.65;;
39698;SDS011;25372;50.582;12.250;2023-02-19T22:06:17;8.23;;;2.38;;
39698;SDS011;25372;50.582;12.250;2023-02-19T22:16:42;5.55;;;1.70;;
39698;SDS011;25372;50.582;12.250;2023-02-19T22:27:03;5.10;;;2.10;;
39698;SDS011;25372;50.582;12.250;2023-02-19T22:37:25;5.70;;;2.35;;
39698;SDS011;25372;50.582;12.250;2023-02-19T22:47:48;5.28;;;2.88;;
39698;SDS011;25372;50.582;12.250;2023-02-19T22:58:10;3.15;;;2.63;;
39698;SDS011;25372;50.582;12.250;2023-02-19T23:08:31;2.53;;;1.45;;
39698;SDS011;25372;50.582;12.250;2023-02-19T23:18:52;5.32;;;2.00;;
39698;SDS011;25372;50.582;12.250;2023-02-19T23:29:14;3.45;;;2.13;;
39698;SDS011;25372;50.582;12.250;2023-02-19T23:39:36;2.65;;;2.25;;
39698;SDS011;25372;50.582;12.250;2023-02-19T23:49:57;5.97;;;2.85;;
